Shell Lake, Canada
Current Conditions -  °F | °C
As of 6:00 AM on Monday 22 Dec 2014 (Local Time) from CYPA Reporting Station
Overcast Overcast  
Wind Chill: 15°   Ceiling: 400
Heat Index: 21°   Visibility: 10mi
Dew Point: 21°   Wind: 5mph
Humidity: 100%   Direction: 20°NNE
Pressure: 29.67"   Gusts: NA
Location:  53.3°N, 107.05°W
Report Text: CYPA 221200Z 02004KT 10SM OVC004 M06/M06 A2967 RMK ST8 SNW CVR/MUCH LOOSE SLP075
Loading
Personal Weather Stations






























Interactive Weather Map New forecast layout! Learn more

10-Day Weather Forecast

Advertisements
Track Severe Weather on mobile